sensor_id;sensor_type;location;lat;lon;timestamp;pressure;altitude;pressure_sealevel;temperature;humidity
76137;BME280;68622;53.128;17.966;2023-08-17T00:01:51;101727.00;;;20.54;62.64
76137;BME280;68622;53.128;17.966;2023-08-17T00:04:17;101724.65;;;20.55;62.46
76137;BME280;68622;53.128;17.966;2023-08-17T00:06:44;101725.03;;;20.52;61.95
76137;BME280;68622;53.128;17.966;2023-08-17T00:09:10;101726.45;;;20.52;61.54
76137;BME280;68622;53.128;17.966;2023-08-17T00:11:35;101729.70;;;20.51;61.06
76137;BME280;68622;53.128;17.966;2023-08-17T00:14:02;101728.66;;;20.49;60.44
76137;BME280;68622;53.128;17.966;2023-08-17T00:16:28;101732.57;;;20.49;60.33
76137;BME280;68622;53.128;17.966;2023-08-17T00:18:54;101739.61;;;20.46;59.86
76137;BME280;68622;53.128;17.966;2023-08-17T00:21:20;101740.84;;;20.42;59.41
76137;BME280;68622;53.128;17.966;2023-08-17T00:23:45;101737.45;;;20.38;59.59
76137;BME280;68622;53.128;17.966;2023-08-17T00:26:11;101743.20;;;20.37;59.41
76137;BME280;68622;53.128;17.966;2023-08-17T00:28:37;101747.40;;;20.36;59.28
76137;BME280;68622;53.128;17.966;2023-08-17T00:31:03;101748.62;;;20.36;59.33
76137;BME280;68622;53.128;17.966;2023-08-17T00:33:29;101741.52;;;20.32;58.29
76137;BME280;68622;53.128;17.966;2023-08-17T00:35:55;101734.75;;;20.29;58.50
76137;BME280;68622;53.128;17.966;2023-08-17T00:38:21;101729.63;;;20.25;57.81
76137;BME280;68622;53.128;17.966;2023-08-17T00:40:47;101734.03;;;20.22;57.87
76137;BME280;68622;53.128;17.966;2023-08-17T00:43:13;101739.23;;;20.18;57.87
76137;BME280;68622;53.128;17.966;2023-08-17T00:45:40;101735.80;;;20.13;57.18
76137;BME280;68622;53.128;17.966;2023-08-17T00:48:07;101730.48;;;20.11;57.51
76137;BME280;68622;53.128;17.966;2023-08-17T00:50:34;101730.64;;;20.11;57.58
76137;BME280;68622;53.128;17.966;2023-08-17T00:53:02;101729.52;;;20.10;57.52
76137;BME280;68622;53.128;17.966;2023-08-17T00:55:29;101732.42;;;20.08;57.44
76137;BME280;68622;53.128;17.966;2023-08-17T00:57:56;101730.19;;;20.06;57.40
76137;BME280;68622;53.128;17.966;2023-08-17T01:00:23;101729.02;;;20.04;57.35
76137;BME280;68622;53.128;17.966;2023-08-17T01:02:50;101727.32;;;20.01;57.47
76137;BME280;68622;53.128;17.966;2023-08-17T01:05:17;101732.53;;;19.98;57.37
76137;BME280;68622;53.128;17.966;2023-08-17T01:07:42;101738.08;;;19.95;57.36
76137;BME280;68622;53.128;17.966;2023-08-17T01:10:09;101737.43;;;19.93;57.46
76137;BME280;68622;53.128;17.966;2023-08-17T01:12:45;101741.41;;;19.94;57.71
76137;BME280;68622;53.128;17.966;2023-08-17T01:15:19;101733.13;;;19.94;57.94
76137;BME280;68622;53.128;17.966;2023-08-17T01:20:37;101735.04;;;19.94;57.58
76137;BME280;68622;53.128;17.966;2023-08-17T01:23:06;101738.98;;;19.92;57.58
76137;BME280;68622;53.128;17.966;2023-08-17T01:25:33;101741.70;;;19.90;57.53
76137;BME280;68622;53.128;17.966;2023-08-17T01:28:03;101741.72;;;19.88;57.56
76137;BME280;68622;53.128;17.966;2023-08-17T01:33:43;101742.23;;;19.87;57.46
76137;BME280;68622;53.128;17.966;2023-08-17T01:36:17;101742.20;;;19.85;57.47
76137;BME280;68622;53.128;17.966;2023-08-17T01:38:46;101741.40;;;19.83;57.48
76137;BME280;68622;53.128;17.966;2023-08-17T01:41:12;101743.10;;;19.82;57.51
76137;BME280;68622;53.128;17.966;2023-08-17T01:43:41;101742.14;;;19.83;57.59
76137;BME280;68622;53.128;17.966;2023-08-17T01:46:16;101745.31;;;19.84;57.70
76137;BME280;68622;53.128;17.966;2023-08-17T01:48:43;101744.89;;;19.85;57.85
76137;BME280;68622;53.128;17.966;2023-08-17T01:51:10;101745.64;;;19.86;58.03
76137;BME280;68622;53.128;17.966;2023-08-17T01:53:37;101739.11;;;19.85;58.00
76137;BME280;68622;53.128;17.966;2023-08-17T01:56:04;101735.55;;;19.84;58.32
76137;BME280;68622;53.128;17.966;2023-08-17T01:58:30;101736.46;;;19.82;58.25
76137;BME280;68622;53.128;17.966;2023-08-17T02:00:55;101733.29;;;19.80;58.19
76137;BME280;68622;53.128;17.966;2023-08-17T02:03:21;101726.31;;;19.75;58.36
76137;BME280;68622;53.128;17.966;2023-08-17T02:05:47;101718.66;;;19.73;58.32
76137;BME280;68622;53.128;17.966;2023-08-17T02:08:14;101716.91;;;19.71;58.27
76137;BME280;68622;53.128;17.966;2023-08-17T02:10:40;101721.53;;;19.70;58.24
76137;BME280;68622;53.128;17.966;2023-08-17T02:13:06;101726.31;;;19.68;58.55
76137;BME280;68622;53.128;17.966;2023-08-17T02:15:32;101722.52;;;19.66;58.81
76137;BME280;68622;53.128;17.966;2023-08-17T02:18:01;101714.47;;;19.62;59.04
76137;BME280;68622;53.128;17.966;2023-08-17T02:20:28;101716.91;;;19.62;58.79
76137;BME280;68622;53.128;17.966;2023-08-17T02:22:54;101725.71;;;19.66;58.91
76137;BME280;68622;53.128;17.966;2023-08-17T02:25:20;101728.36;;;19.68;58.83
76137;BME280;68622;53.128;17.966;2023-08-17T02:27:46;101725.02;;;19.67;58.87
76137;BME280;68622;53.128;17.966;2023-08-17T02:30:12;101727.67;;;19.70;58.50
76137;BME280;68622;53.128;17.966;2023-08-17T02:32:39;101728.95;;;19.67;58.28
76137;BME280;68622;53.128;17.966;2023-08-17T02:35:05;101720.70;;;19.70;58.36
76137;BME280;68622;53.128;17.966;2023-08-17T02:37:31;101716.52;;;19.66;58.17
76137;BME280;68622;53.128;17.966;2023-08-17T02:39:57;101717.41;;;19.69;58.02
76137;BME280;68622;53.128;17.966;2023-08-17T02:42:23;101713.88;;;19.68;57.85
76137;BME280;68622;53.128;17.966;2023-08-17T02:44:49;101717.66;;;19.65;57.94
76137;BME280;68622;53.128;17.966;2023-08-17T02:47:14;101717.88;;;19.66;57.69
76137;BME280;68622;53.128;17.966;2023-08-17T02:49:40;101716.67;;;19.68;57.66
76137;BME280;68622;53.128;17.966;2023-08-17T02:52:06;101720.08;;;19.69;57.44
76137;BME280;68622;53.128;17.966;2023-08-17T02:54:33;101723.55;;;19.69;57.30
76137;BME280;68622;53.128;17.966;2023-08-17T02:56:59;101724.80;;;19.71;57.06
76137;BME280;68622;53.128;17.966;2023-08-17T02:59:25;101723.13;;;19.67;56.79
76137;BME280;68622;53.128;17.966;2023-08-17T03:01:53;101719.69;;;19.68;56.49
76137;BME280;68622;53.128;17.966;2023-08-17T03:04:19;101720.45;;;19.69;56.36
76137;BME280;68622;53.128;17.966;2023-08-17T03:06:45;101718.73;;;19.70;56.66
76137;BME280;68622;53.128;17.966;2023-08-17T03:09:10;101710.80;;;19.72;56.53
76137;BME280;68622;53.128;17.966;2023-08-17T03:11:36;101704.94;;;19.69;56.34
76137;BME280;68622;53.128;17.966;2023-08-17T03:14:02;101707.66;;;19.68;56.40
76137;BME280;68622;53.128;17.966;2023-08-17T03:16:29;101705.65;;;19.68;56.70
76137;BME280;68622;53.128;17.966;2023-08-17T03:18:56;101709.71;;;19.70;56.99
76137;BME280;68622;53.128;17.966;2023-08-17T03:21:22;101712.48;;;19.64;56.55
76137;BME280;68622;53.128;17.966;2023-08-17T03:23:49;101710.64;;;19.60;56.55
76137;BME280;68622;53.128;17.966;2023-08-17T03:26:16;101710.05;;;19.58;56.39
76137;BME280;68622;53.128;17.966;2023-08-17T03:28:42;101714.31;;;19.58;56.39
76137;BME280;68622;53.128;17.966;2023-08-17T03:31:08;101715.04;;;19.57;55.98
76137;BME280;68622;53.128;17.966;2023-08-17T03:33:35;101710.56;;;19.59;56.22
76137;BME280;68622;53.128;17.966;2023-08-17T03:36:02;101718.27;;;19.60;56.04
76137;BME280;68622;53.128;17.966;2023-08-17T03:38:28;101732.25;;;19.62;55.74
76137;BME280;68622;53.128;17.966;2023-08-17T03:40:55;101738.20;;;19.64;55.67
76137;BME280;68622;53.128;17.966;2023-08-17T03:43:22;101739.33;;;19.65;55.67
76137;BME280;68622;53.128;17.966;2023-08-17T03:45:48;101758.10;;;19.64;55.20
76137;BME280;68622;53.128;17.966;2023-08-17T03:48:14;101779.75;;;19.66;54.81
76137;BME280;68622;53.128;17.966;2023-08-17T03:50:40;101793.52;;;19.65;54.59
76137;BME280;68622;53.128;17.966;2023-08-17T03:53:07;101792.14;;;19.67;55.14
76137;BME280;68622;53.128;17.966;2023-08-17T03:55:33;101799.95;;;19.68;55.31
76137;BME280;68622;53.128;17.966;2023-08-17T03:57:59;101800.56;;;19.67;56.29
76137;BME280;68622;53.128;17.966;2023-08-17T04:00:26;101809.20;;;19.61;58.15
76137;BME280;68622;53.128;17.966;2023-08-17T04:02:54;101825.33;;;19.58;57.08
76137;BME280;68622;53.128;17.966;2023-08-17T04:05:20;101827.31;;;19.56;60.40
76137;BME280;68622;53.128;17.966;2023-08-17T04:07:47;101804.95;;;19.45;60.79
76137;BME280;68622;53.128;17.966;2023-08-17T04:10:13;101781.34;;;19.32;61.76
76137;BME280;68622;53.128;17.966;2023-08-17T04:12:39;101763.47;;;19.18;63.00
76137;BME280;68622;53.128;17.966;2023-08-17T04:15:05;101752.95;;;18.99;63.39
76137;BME280;68622;53.128;17.966;2023-08-17T04:17:31;101776.72;;;18.88;63.30
76137;BME280;68622;53.128;17.966;2023-08-17T04:19:57;101805.73;;;18.83;64.03
76137;BME280;68622;53.128;17.966;2023-08-17T04:22:24;101814.27;;;18.78;65.26
76137;BME280;68622;53.128;17.966;2023-08-17T04:24:50;101808.45;;;18.63;66.48
76137;BME280;68622;53.128;17.966;2023-08-17T04:27:16;101803.58;;;18.52;67.46
76137;BME280;68622;53.128;17.966;2023-08-17T04:29:43;101805.15;;;18.44;67.70
76137;BME280;68622;53.128;17.966;2023-08-17T04:32:14;101812.32;;;18.41;67.25
76137;BME280;68622;53.128;17.966;2023-08-17T04:34:44;101819.99;;;18.40;66.02
76137;BME280;68622;53.128;17.966;2023-08-17T04:37:16;101832.35;;;18.42;68.20
76137;BME280;68622;53.128;17.966;2023-08-17T04:39:42;101843.78;;;18.42;67.20
76137;BME280;68622;53.128;17.966;2023-08-17T04:42:10;101849.56;;;18.44;67.40
76137;BME280;68622;53.128;17.966;2023-08-17T04:44:36;101852.64;;;18.43;68.77
76137;BME280;68622;53.128;17.966;2023-08-17T04:47:02;101856.48;;;18.39;70.05
76137;BME280;68622;53.128;17.966;2023-08-17T04:49:28;101847.42;;;18.34;70.15
76137;BME280;68622;53.128;17.966;2023-08-17T04:51:54;101841.03;;;18.29;70.97
76137;BME280;68622;53.128;17.966;2023-08-17T04:54:20;101831.39;;;18.25;70.78
76137;BME280;68622;53.128;17.966;2023-08-17T04:56:46;101828.09;;;18.21;70.04
76137;BME280;68622;53.128;17.966;2023-08-17T04:59:11;101821.95;;;18.26;69.17
76137;BME280;68622;53.128;17.966;2023-08-17T05:01:38;101816.18;;;18.31;69.92
76137;BME280;68622;53.128;17.966;2023-08-17T05:04:05;101807.39;;;18.36;69.72
76137;BME280;68622;53.128;17.966;2023-08-17T05:06:31;101811.62;;;18.38;68.80
76137;BME280;68622;53.128;17.966;2023-08-17T05:08:57;101815.90;;;18.45;68.92
76137;BME280;68622;53.128;17.966;2023-08-17T05:11:24;101818.23;;;18.53;68.32
76137;BME280;68622;53.128;17.966;2023-08-17T05:13:50;101823.52;;;18.58;69.52
76137;BME280;68622;53.128;17.966;2023-08-17T05:16:15;101823.62;;;18.61;68.69
76137;BME280;68622;53.128;17.966;2023-08-17T05:18:41;101820.08;;;18.58;68.41
76137;BME280;68622;53.128;17.966;2023-08-17T05:21:07;101821.36;;;18.59;68.17
76137;BME280;68622;53.128;17.966;2023-08-17T05:23:33;101817.17;;;18.62;68.34
76137;BME280;68622;53.128;17.966;2023-08-17T05:25:59;101802.84;;;18.68;68.18
76137;BME280;68622;53.128;17.966;2023-08-17T05:28:26;101797.19;;;18.71;68.07
76137;BME280;68622;53.128;17.966;2023-08-17T05:30:53;101793.11;;;18.78;67.36
76137;BME280;68622;53.128;17.966;2023-08-17T05:33:19;101796.64;;;18.78;67.64
76137;BME280;68622;53.128;17.966;2023-08-17T05:35:46;101790.50;;;18.73;67.76
76137;BME280;68622;53.128;17.966;2023-08-17T05:38:11;101789.64;;;18.73;67.93
76137;BME280;68622;53.128;17.966;2023-08-17T05:40:37;101791.55;;;18.73;68.53
76137;BME280;68622;53.128;17.966;2023-08-17T05:43:03;101789.58;;;18.77;68.74
76137;BME280;68622;53.128;17.966;2023-08-17T05:45:29;101798.35;;;18.75;68.24
76137;BME280;68622;53.128;17.966;2023-08-17T05:47:55;101802.88;;;18.81;67.81
76137;BME280;68622;53.128;17.966;2023-08-17T05:50:21;101807.77;;;18.87;67.58
76137;BME280;68622;53.128;17.966;2023-08-17T05:52:48;101801.98;;;18.93;67.72
76137;BME280;68622;53.128;17.966;2023-08-17T05:55:14;101796.57;;;18.97;67.44
76137;BME280;68622;53.128;17.966;2023-08-17T05:57:40;101789.77;;;19.03;67.87
76137;BME280;68622;53.128;17.966;2023-08-17T06:00:06;101795.39;;;19.08;67.26
76137;BME280;68622;53.128;17.966;2023-08-17T06:02:39;101804.45;;;19.04;67.48
76137;BME280;68622;53.128;17.966;2023-08-17T06:05:05;101808.22;;;19.11;67.14
76137;BME280;68622;53.128;17.966;2023-08-17T06:07:31;101815.50;;;19.12;66.90
76137;BME280;68622;53.128;17.966;2023-08-17T06:09:57;101818.90;;;19.20;67.06
76137;BME280;68622;53.128;17.966;2023-08-17T06:12:23;101829.53;;;19.21;67.09
76137;BME280;68622;53.128;17.966;2023-08-17T06:14:49;101842.45;;;19.17;66.74
76137;BME280;68622;53.128;17.966;2023-08-17T06:17:15;101848.79;;;19.20;67.05
76137;BME280;68622;53.128;17.966;2023-08-17T06:19:41;101848.07;;;19.17;66.56
76137;BME280;68622;53.128;17.966;2023-08-17T06:22:07;101844.54;;;19.14;67.08
76137;BME280;68622;53.128;17.966;2023-08-17T06:24:33;101844.80;;;19.15;67.68
76137;BME280;68622;53.128;17.966;2023-08-17T06:26:59;101844.83;;;19.21;66.54
76137;BME280;68622;53.128;17.966;2023-08-17T06:29:25;101836.75;;;19.37;66.03
76137;BME280;68622;53.128;17.966;2023-08-17T06:31:51;101834.65;;;19.53;67.33
76137;BME280;68622;53.128;17.966;2023-08-17T06:34:17;101830.52;;;19.70;66.48
76137;BME280;68622;53.128;17.966;2023-08-17T06:36:56;101828.09;;;19.80;65.41
76137;BME280;68622;53.128;17.966;2023-08-17T06:39:22;101831.06;;;19.87;64.87
76137;BME280;68622;53.128;17.966;2023-08-17T06:41:48;101834.48;;;19.95;64.88
76137;BME280;68622;53.128;17.966;2023-08-17T06:44:14;101842.52;;;20.11;65.62
76137;BME280;68622;53.128;17.966;2023-08-17T06:46:40;101845.31;;;20.21;65.62
76137;BME280;68622;53.128;17.966;2023-08-17T06:49:06;101839.98;;;20.24;65.43
76137;BME280;68622;53.128;17.966;2023-08-17T06:51:34;101838.54;;;20.36;65.25
76137;BME280;68622;53.128;17.966;2023-08-17T06:54:00;101836.63;;;20.40;65.03
76137;BME280;68622;53.128;17.966;2023-08-17T06:56:26;101839.86;;;20.35;64.34
76137;BME280;68622;53.128;17.966;2023-08-17T06:58:52;101839.42;;;20.36;63.82
76137;BME280;68622;53.128;17.966;2023-08-17T07:01:17;101841.00;;;20.39;64.15
76137;BME280;68622;53.128;17.966;2023-08-17T07:03:43;101844.02;;;20.31;63.52
76137;BME280;68622;53.128;17.966;2023-08-17T07:06:10;101845.67;;;20.30;63.85
76137;BME280;68622;53.128;17.966;2023-08-17T07:08:36;101852.91;;;20.38;63.74
76137;BME280;68622;53.128;17.966;2023-08-17T07:11:01;101847.27;;;20.49;63.67
76137;BME280;68622;53.128;17.966;2023-08-17T07:13:29;101839.77;;;20.55;63.68
76137;BME280;68622;53.128;17.966;2023-08-17T07:15:55;101836.95;;;20.58;63.87
76137;BME280;68622;53.128;17.966;2023-08-17T07:18:21;101842.64;;;20.57;63.55
76137;BME280;68622;53.128;17.966;2023-08-17T07:20:47;101844.70;;;20.61;63.70
76137;BME280;68622;53.128;17.966;2023-08-17T07:23:13;101853.67;;;20.70;63.63
76137;BME280;68622;53.128;17.966;2023-08-17T07:25:39;101857.41;;;20.70;63.52
76137;BME280;68622;53.128;17.966;2023-08-17T07:28:05;101857.98;;;20.65;63.25
76137;BME280;68622;53.128;17.966;2023-08-17T07:30:31;101851.51;;;20.68;63.21
76137;BME280;68622;53.128;17.966;2023-08-17T07:32:57;101846.25;;;20.74;63.68
76137;BME280;68622;53.128;17.966;2023-08-17T07:35:23;101846.31;;;20.68;64.12
76137;BME280;68622;53.128;17.966;2023-08-17T07:37:49;101846.39;;;20.79;64.23
76137;BME280;68622;53.128;17.966;2023-08-17T07:40:15;101837.54;;;20.77;63.84
76137;BME280;68622;53.128;17.966;2023-08-17T07:42:41;101834.53;;;20.97;63.65
76137;BME280;68622;53.128;17.966;2023-08-17T07:45:07;101830.11;;;21.05;62.91
76137;BME280;68622;53.128;17.966;2023-08-17T07:47:34;101821.52;;;21.25;62.62
76137;BME280;68622;53.128;17.966;2023-08-17T07:50:05;101812.69;;;21.41;62.18
76137;BME280;68622;53.128;17.966;2023-08-17T07:52:31;101812.44;;;21.42;62.19
76137;BME280;68622;53.128;17.966;2023-08-17T07:54:57;101817.55;;;21.55;61.90
76137;BME280;68622;53.128;17.966;2023-08-17T07:57:23;101824.00;;;21.45;61.70
76137;BME280;68622;53.128;17.966;2023-08-17T07:59:49;101837.27;;;21.66;61.35
76137;BME280;68622;53.128;17.966;2023-08-17T08:02:15;101842.84;;;21.70;60.96
76137;BME280;68622;53.128;17.966;2023-08-17T08:04:41;101842.42;;;21.69;60.59
76137;BME280;68622;53.128;17.966;2023-08-17T08:07:07;101839.98;;;21.73;60.72
76137;BME280;68622;53.128;17.966;2023-08-17T08:09:33;101841.20;;;21.78;60.65
76137;BME280;68622;53.128;17.966;2023-08-17T08:11:58;101847.26;;;21.99;60.21
76137;BME280;68622;53.128;17.966;2023-08-17T08:14:24;101851.73;;;22.21;60.13
76137;BME280;68622;53.128;17.966;2023-08-17T08:16:51;101864.08;;;22.45;59.76
76137;BME280;68622;53.128;17.966;2023-08-17T08:19:16;101870.86;;;22.49;58.61
76137;BME280;68622;53.128;17.966;2023-08-17T08:21:42;101874.78;;;22.63;58.64
76137;BME280;68622;53.128;17.966;2023-08-17T08:24:08;101868.01;;;22.81;58.70
76137;BME280;68622;53.128;17.966;2023-08-17T08:26:34;101856.42;;;22.76;57.56
76137;BME280;68622;53.128;17.966;2023-08-17T08:29:00;101844.38;;;22.95;58.25
76137;BME280;68622;53.128;17.966;2023-08-17T08:31:26;101830.98;;;23.03;58.77
76137;BME280;68622;53.128;17.966;2023-08-17T08:33:52;101823.30;;;23.06;58.05
76137;BME280;68622;53.128;17.966;2023-08-17T08:36:19;101819.03;;;23.03;58.81
76137;BME280;68622;53.128;17.966;2023-08-17T08:38:45;101813.66;;;23.01;58.21
76137;BME280;68622;53.128;17.966;2023-08-17T08:41:11;101806.80;;;22.88;58.03
76137;BME280;68622;53.128;17.966;2023-08-17T08:43:41;101809.88;;;22.86;57.92
76137;BME280;68622;53.128;17.966;2023-08-17T08:46:07;101811.17;;;22.88;57.93
76137;BME280;68622;53.128;17.966;2023-08-17T08:48:34;101806.73;;;22.86;58.51
76137;BME280;68622;53.128;17.966;2023-08-17T08:51:03;101803.94;;;22.74;58.54
76137;BME280;68622;53.128;17.966;2023-08-17T08:53:35;101794.88;;;22.84;58.89
76137;BME280;68622;53.128;17.966;2023-08-17T08:56:10;101799.60;;;22.73;58.70
76137;BME280;68622;53.128;17.966;2023-08-17T08:58:41;101801.02;;;22.88;58.58
76137;BME280;68622;53.128;17.966;2023-08-17T09:01:10;101793.98;;;23.03;58.22
76137;BME280;68622;53.128;17.966;2023-08-17T09:03:38;101792.52;;;23.00;57.57
76137;BME280;68622;53.128;17.966;2023-08-17T09:06:04;101786.15;;;23.23;57.69
76137;BME280;68622;53.128;17.966;2023-08-17T09:08:34;101778.59;;;23.46;57.08
76137;BME280;68622;53.128;17.966;2023-08-17T09:11:00;101775.23;;;23.51;56.92
76137;BME280;68622;53.128;17.966;2023-08-17T09:13:28;101777.55;;;23.81;56.49
76137;BME280;68622;53.128;17.966;2023-08-17T09:15:54;101779.96;;;24.18;55.47
76137;BME280;68622;53.128;17.966;2023-08-17T09:18:20;101782.52;;;24.46;54.79
76137;BME280;68622;53.128;17.966;2023-08-17T09:20:47;101783.89;;;24.68;55.00
76137;BME280;68622;53.128;17.966;2023-08-17T09:23:16;101787.06;;;24.85;54.50
76137;BME280;68622;53.128;17.966;2023-08-17T09:25:45;101783.99;;;24.86;54.78
76137;BME280;68622;53.128;17.966;2023-08-17T09:28:14;101780.80;;;24.85;54.17
76137;BME280;68622;53.128;17.966;2023-08-17T09:30:57;101772.35;;;24.72;53.58
76137;BME280;68622;53.128;17.966;2023-08-17T09:33:28;101780.64;;;24.63;53.79
76137;BME280;68622;53.128;17.966;2023-08-17T09:35:56;101778.71;;;24.59;54.28
76137;BME280;68622;53.128;17.966;2023-08-17T09:38:23;101771.33;;;24.40;54.44
76137;BME280;68622;53.128;17.966;2023-08-17T09:40:50;101755.64;;;24.35;54.90
76137;BME280;68622;53.128;17.966;2023-08-17T09:43:18;101744.34;;;24.22;55.04
76137;BME280;68622;53.128;17.966;2023-08-17T09:45:44;101727.42;;;24.12;55.14
76137;BME280;68622;53.128;17.966;2023-08-17T09:48:15;101717.55;;;23.99;55.32
76137;BME280;68622;53.128;17.966;2023-08-17T09:50:42;101710.20;;;23.82;55.74
76137;BME280;68622;53.128;17.966;2023-08-17T09:53:12;101694.70;;;23.72;56.76
76137;BME280;68622;53.128;17.966;2023-08-17T09:55:40;101685.79;;;23.63;58.13
76137;BME280;68622;53.128;17.966;2023-08-17T09:58:06;101693.02;;;23.61;59.05
76137;BME280;68622;53.128;17.966;2023-08-17T10:00:34;101696.23;;;23.60;60.13
76137;BME280;68622;53.128;17.966;2023-08-17T10:03:02;101690.58;;;23.63;59.83
76137;BME280;68622;53.128;17.966;2023-08-17T10:05:35;101680.20;;;23.87;58.72
76137;BME280;68622;53.128;17.966;2023-08-17T10:08:06;101669.48;;;24.12;58.70
76137;BME280;68622;53.128;17.966;2023-08-17T10:10:35;101672.67;;;24.32;58.18
76137;BME280;68622;53.128;17.966;2023-08-17T10:13:09;101684.20;;;24.48;57.63
76137;BME280;68622;53.128;17.966;2023-08-17T10:15:55;101689.45;;;24.66;56.80
76137;BME280;68622;53.128;17.966;2023-08-17T10:21:06;101679.36;;;25.08;56.78
76137;BME280;68622;53.128;17.966;2023-08-17T10:23:33;101678.31;;;25.25;56.10
76137;BME280;68622;53.128;17.966;2023-08-17T10:26:01;101678.90;;;25.48;55.52
76137;BME280;68622;53.128;17.966;2023-08-17T10:28:31;101676.40;;;25.66;53.48
76137;BME280;68622;53.128;17.966;2023-08-17T10:30:58;101684.27;;;25.81;52.41
76137;BME280;68622;53.128;17.966;2023-08-17T10:33:25;101680.84;;;25.97;52.76
76137;BME280;68622;53.128;17.966;2023-08-17T10:35:53;101680.51;;;26.04;52.18
76137;BME280;68622;53.128;17.966;2023-08-17T10:38:20;101678.33;;;26.04;51.82
76137;BME280;68622;53.128;17.966;2023-08-17T10:41:11;101679.97;;;26.04;51.99
76137;BME280;68622;53.128;17.966;2023-08-17T10:43:57;101680.77;;;25.91;51.33
76137;BME280;68622;53.128;17.966;2023-08-17T10:46:35;101683.58;;;25.80;51.62
76137;BME280;68622;53.128;17.966;2023-08-17T10:49:06;101687.17;;;25.70;50.95
76137;BME280;68622;53.128;17.966;2023-08-17T10:52:01;101686.16;;;25.80;51.61
76137;BME280;68622;53.128;17.966;2023-08-17T10:54:39;101692.35;;;25.98;51.04
76137;BME280;68622;53.128;17.966;2023-08-17T10:57:37;101688.04;;;26.14;50.70
76137;BME280;68622;53.128;17.966;2023-08-17T11:00:21;101684.81;;;26.28;49.43
76137;BME280;68622;53.128;17.966;2023-08-17T11:03:01;101677.40;;;26.35;49.68
76137;BME280;68622;53.128;17.966;2023-08-17T11:08:09;101678.08;;;26.48;49.85
76137;BME280;68622;53.128;17.966;2023-08-17T11:10:36;101675.34;;;26.46;50.02
76137;BME280;68622;53.128;17.966;2023-08-17T11:13:03;101673.66;;;26.40;49.52
76137;BME280;68622;53.128;17.966;2023-08-17T11:15:40;101671.02;;;26.30;49.20
76137;BME280;68622;53.128;17.966;2023-08-17T11:18:10;101668.63;;;26.32;50.13
76137;BME280;68622;53.128;17.966;2023-08-17T11:20:38;101665.08;;;26.19;49.84
76137;BME280;68622;53.128;17.966;2023-08-17T11:23:05;101665.21;;;26.30;50.41
76137;BME280;68622;53.128;17.966;2023-08-17T11:25:32;101663.37;;;26.39;50.41
76137;BME280;68622;53.128;17.966;2023-08-17T11:28:00;101663.76;;;26.41;49.64
76137;BME280;68622;53.128;17.966;2023-08-17T11:30:27;101664.86;;;26.47;50.22
76137;BME280;68622;53.128;17.966;2023-08-17T11:32:54;101674.36;;;26.50;49.31
76137;BME280;68622;53.128;17.966;2023-08-17T11:35:21;101676.86;;;26.58;49.20
76137;BME280;68622;53.128;17.966;2023-08-17T11:37:48;101674.98;;;26.67;49.28
76137;BME280;68622;53.128;17.966;2023-08-17T11:40:15;101675.13;;;26.73;48.48
76137;BME280;68622;53.128;17.966;2023-08-17T11:42:42;101676.08;;;26.82;48.91
76137;BME280;68622;53.128;17.966;2023-08-17T11:45:08;101673.42;;;26.92;49.19
76137;BME280;68622;53.128;17.966;2023-08-17T11:47:43;101670.55;;;27.00;48.83
76137;BME280;68622;53.128;17.966;2023-08-17T11:50:11;101669.58;;;27.08;48.92
76137;BME280;68622;53.128;17.966;2023-08-17T11:52:38;101664.04;;;27.16;49.09
76137;BME280;68622;53.128;17.966;2023-08-17T11:55:08;101660.79;;;27.16;48.84
76137;BME280;68622;53.128;17.966;2023-08-17T11:57:37;101655.59;;;27.20;48.56
76137;BME280;68622;53.128;17.966;2023-08-17T12:00:05;101652.04;;;27.23;48.16
76137;BME280;68622;53.128;17.966;2023-08-17T12:02:38;101649.54;;;27.23;48.21
76137;BME280;68622;53.128;17.966;2023-08-17T12:05:08;101654.03;;;27.32;48.40
76137;BME280;68622;53.128;17.966;2023-08-17T12:07:35;101658.86;;;27.42;48.11
76137;BME280;68622;53.128;17.966;2023-08-17T12:10:04;101657.17;;;27.48;48.12
76137;BME280;68622;53.128;17.966;2023-08-17T12:12:30;101657.84;;;27.52;48.09
76137;BME280;68622;53.128;17.966;2023-08-17T12:14:57;101662.02;;;27.47;47.48
76137;BME280;68622;53.128;17.966;2023-08-17T12:17:24;101661.66;;;27.52;47.67
76137;BME280;68622;53.128;17.966;2023-08-17T12:19:54;101663.14;;;27.61;47.86
76137;BME280;68622;53.128;17.966;2023-08-17T12:22:24;101663.96;;;27.75;48.19
76137;BME280;68622;53.128;17.966;2023-08-17T12:24:52;101662.13;;;27.88;47.88
76137;BME280;68622;53.128;17.966;2023-08-17T12:27:18;101664.21;;;27.98;47.73
76137;BME280;68622;53.128;17.966;2023-08-17T12:29:48;101661.98;;;28.09;47.69
76137;BME280;68622;53.128;17.966;2023-08-17T12:32:18;101658.10;;;28.18;47.02
76137;BME280;68622;53.128;17.966;2023-08-17T12:34:45;101653.75;;;28.29;46.96
76137;BME280;68622;53.128;17.966;2023-08-17T12:37:12;101653.70;;;28.40;46.91
76137;BME280;68622;53.128;17.966;2023-08-17T12:39:38;101653.48;;;28.49;46.57
76137;BME280;68622;53.128;17.966;2023-08-17T12:42:05;101652.30;;;28.48;46.71
76137;BME280;68622;53.128;17.966;2023-08-17T12:44:31;101651.16;;;28.39;46.15
76137;BME280;68622;53.128;17.966;2023-08-17T12:46:57;101655.39;;;28.40;46.54
76137;BME280;68622;53.128;17.966;2023-08-17T12:49:23;101656.55;;;28.42;46.83
76137;BME280;68622;53.128;17.966;2023-08-17T12:51:50;101658.11;;;28.44;46.81
76137;BME280;68622;53.128;17.966;2023-08-17T12:54:15;101657.91;;;28.37;45.51